Map

Track Data

SID SEASON NUMBER BASIN SUBBASIN NAME ISO_TIME NATURE LAT LON WMO_WIND WMO_PRES WMO_AGENCY TRACK_TYPE DIST2LAND LANDFALL IFLAG USA_AGENCY USA_ATCF_ID USA_LAT USA_LON USA_RECORD USA_STATUS USA_WIND USA_PRES USA_SSHS USA_R34_NE USA_R34_SE USA_R34_SW USA_R34_NW USA_R50_NE USA_R50_SE USA_R50_SW USA_R50_NW USA_R64_NE USA_R64_SE USA_R64_SW USA_R64_NW USA_POCI USA_ROCI USA_RMW USA_EYE TOKYO_LAT TOKYO_LON TOKYO_GRADE TOKYO_WIND TOKYO_PRES TOKYO_R50_DIR TOKYO_R50_LONG TOKYO_R50_SHORT TOKYO_R30_DIR TOKYO_R30_LONG TOKYO_R30_SHORT TOKYO_LAND CMA_LAT CMA_LON CMA_CAT CMA_WIND CMA_PRES HKO_LAT HKO_LON HKO_CAT HKO_WIND HKO_PRES NEWDELHI_LAT NEWDELHI_LON NEWDELHI_GRADE NEWDELHI_WIND NEWDELHI_PRES NEWDELHI_CI NEWDELHI_DP NEWDELHI_POCI REUNION_LAT REUNION_LON REUNION_TYPE REUNION_WIND REUNION_PRES REUNION_TNUM REUNION_CI REUNION_RMW REUNION_R34_NE REUNION_R34_SE REUNION_R34_SW REUNION_R34_NW REUNION_R50_NE REUNION_R50_SE REUNION_R50_SW REUNION_R50_NW REUNION_R64_NE REUNION_R64_SE REUNION_R64_SW REUNION_R64_NW BOM_LAT BOM_LON BOM_TYPE BOM_WIND BOM_PRES BOM_TNUM BOM_CI BOM_RMW BOM_R34_NE BOM_R34_SE BOM_R34_SW BOM_R34_NW BOM_R50_NE BOM_R50_SE BOM_R50_SW BOM_R50_NW BOM_R64_NE BOM_R64_SE BOM_R64_SW BOM_R64_NW BOM_ROCI BOM_POCI BOM_EYE BOM_POS_METHOD BOM_PRES_METHOD NADI_LAT NADI_LON NADI_CAT NADI_WIND NADI_PRES WELLINGTON_LAT WELLINGTON_LON WELLINGTON_WIND WELLINGTON_PRES DS824_LAT DS824_LON DS824_STAGE DS824_WIND DS824_PRES TD9636_LAT TD9636_LON TD9636_STAGE TD9636_WIND TD9636_PRES TD9635_LAT TD9635_LON TD9635_WIND TD9635_PRES TD9635_ROCI NEUMANN_LAT NEUMANN_LON NEUMANN_CLASS NEUMANN_WIND NEUMANN_PRES MLC_LAT MLC_LON MLC_CLASS MLC_WIND MLC_PRES USA_GUST BOM_GUST BOM_GUST_PER REUNION_GUST REUNION_GUST_PER USA_SEAHGT USA_SEARAD_NE USA_SEARAD_SE USA_SEARAD_SW USA_SEARAD_NW STORM_SPEED STORM_DIR
1891039S13068 1891 3 SI MM NOT_NAMED 1891-02-07 18:00:00 NR -13.2000 68.2000 main 1358 1334 __________O___ -1 -13.2000 68.2000 7 5 255
1891039S13068 1891 3 SI MM NOT_NAMED 1891-02-07 21:00:00 NR -13.2626 67.9547 main 1334 1308 __________P___ -1 -13.2626 67.9547 7 5 255
1891039S13068 1891 3 SI MM NOT_NAMED 1891-02-08 00:00:00 NR -13.3300 67.6975 main 1308 1275 __________P___ -1 -13.3300 67.6975 7 5 255
1891039S13068 1891 3 SI MM NOT_NAMED 1891-02-08 03:00:00 NR -13.4075 67.4165 main 1275 1243 __________P___ -1 -13.4075 67.4165 7 6 254
1891039S13068 1891 3 SI MM NOT_NAMED 1891-02-08 06:00:00 NR -13.5000 67.1000 main 1243 1210 __________O___ -1 -13.5000 67.1000 7 7 253
1891039S13068 1891 3 SI MM NOT_NAMED 1891-02-08 09:00:00 NR -13.6106 66.7400 main 1202 1169 __________P___ -1 -13.6106 66.7400 7 8 252
1891039S13068 1891 3 SI MM NOT_NAMED 1891-02-08 12:00:00 NR -13.7350 66.3450 main 1161 1122 __________P___ -1 -13.7350 66.3450 7 8 252
1891039S13068 1891 3 SI MM NOT_NAMED 1891-02-08 15:00:00 NR -13.8668 65.9275 main 1113 1073 __________P___ -1 -13.8668 65.9275 7 9 252
1891039S13068 1891 3 SI MM NOT_NAMED 1891-02-08 18:00:00 NR -14.0000 65.5000 main 1073 1033 __________O___ -1 -14.0000 65.5000 7 9 253
1891039S13068 1891 3 SI MM NOT_NAMED 1891-02-08 21:00:00 NR -14.1166 65.0900 main 1033 994 __________P___ -1 -14.1166 65.0900 7 8 254
1891039S13068 1891 3 SI MM NOT_NAMED 1891-02-09 00:00:00 NR -14.2346 64.6721 main 994 947 __________P___ -1 -14.2346 64.6721 7 9 253
1891039S13068 1891 3 SI MM NOT_NAMED 1891-02-09 03:00:00 NR -14.3603 64.2431 main 939 900 __________P___ -1 -14.3603 64.2431 7 9 253
1891039S13068 1891 3 SI MM NOT_NAMED 1891-02-09 06:00:00 NR -14.5000 63.8000 main 900 862 __________O___ -1 -14.5000 63.8000 7 9 252
1891039S13068 1891 3 SI MM NOT_NAMED 1891-02-09 09:00:00 NR -14.6482 63.3432 main 855 809 __________P___ -1 -14.6482 63.3432 7 10 251
1891039S13068 1891 3 SI MM NOT_NAMED 1891-02-09 12:00:00 NR -14.8122 62.8720 main 809 757 __________P___ -1 -14.8122 62.8720 7 10 249
1891039S13068 1891 3 SI MM NOT_NAMED 1891-02-09 15:00:00 NR -14.9951 62.3899 main 757 706 __________P___ -1 -14.9951 62.3899 7 10 248
1891039S13068 1891 3 SI MM NOT_NAMED 1891-02-09 18:00:00 NR -15.2000 61.9000 main 706 649 __________O___ -1 -15.2000 61.9000 7 12 249
1891039S13068 1891 3 SI MM NOT_NAMED 1891-02-09 21:00:00 NR -15.4250 61.2140 main 643 580 __________P___ -1 -15.4250 61.2140 7 14 250
1891039S13068 1891 3 SI MM NOT_NAMED 1891-02-10 00:00:00 NR -15.6704 60.5503 main 580 534 __________P___ -1 -15.6704 60.5503 7 12 246
1891039S13068 1891 3 SI MM NOT_NAMED 1891-02-10 03:00:00 NR -15.9303 60.0613 main 534 494 __________P___ -1 -15.9303 60.0613 7 8 230
1891039S13068 1891 3 SI MM NOT_NAMED 1891-02-10 06:00:00 NR -16.2000 59.9000 main 494 479 __________O___ -1 -16.2000 59.9000 7 6 160
1891039S13068 1891 3 SI MM NOT_NAMED 1891-02-10 09:00:00 NR -16.4812 60.2691 main 487 484 __________P___ -1 -16.4812 60.2691 7 12 119
1891039S13068 1891 3 SI MM NOT_NAMED 1891-02-10 12:00:00 NR -16.7675 60.9672 main 507 507 __________P___ -1 -16.7675 60.9672 7 16 111
1891039S13068 1891 3 SI MM NOT_NAMED 1891-02-10 15:00:00 NR -17.0446 61.8321 main 554 554 __________P___ -1 -17.0446 61.8321 7 17 108
1891039S13068 1891 3 SI MM NOT_NAMED 1891-02-10 18:00:00 NR -17.3000 62.7000 main 612 612 __________O___ -1 -17.3000 62.7000 7 15 109
1891039S13068 1891 3 SI MM NOT_NAMED 1891-02-10 21:00:00 NR -17.5374 63.3615 main 666 661 __________P___ -1 -17.5374 63.3615 7 13 110
1891039S13068 1891 3 SI MM NOT_NAMED 1891-02-11 00:00:00 NR -17.7521 63.9901 main 709 709 __________P___ -1 -17.7521 63.9901 7 12 109
1891039S13068 1891 3 SI MM NOT_NAMED 1891-02-11 03:00:00 NR -17.9408 64.5738 main 763 759 __________P___ -1 -17.9408 64.5738 7 11 108
1891039S13068 1891 3 SI MM NOT_NAMED 1891-02-11 06:00:00 NR -18.1000 65.1000 main 805 805 __________O___ -1 -18.1000 65.1000 7 10 107
1891039S13068 1891 3 SI MM NOT_NAMED 1891-02-11 09:00:00 NR -18.2278 65.5622 main 851 851 __________P___ -1 -18.2278 65.5622 7 9 106
1891039S13068 1891 3 SI MM NOT_NAMED 1891-02-11 12:00:00 NR -18.3289 65.9683 main 889 889 __________P___ -1 -18.3289 65.9683 7 8 104
1891039S13068 1891 3 SI MM NOT_NAMED 1891-02-11 15:00:00 NR -18.4155 66.3402 main 916 916 __________P___ -1 -18.4155 66.3402 7 7 104
1891039S13068 1891 3 SI MM NOT_NAMED 1891-02-11 18:00:00 NR -18.5000 66.7000 main 954 954 __________O___ -1 -18.5000 66.7000 7 7 104
1891039S13068 1891 3 SI MM NOT_NAMED 1891-02-11 21:00:00 NR -18.5919 67.0658 main 993 993 __________P___ -1 -18.5919 67.0658 7 7 105
1891039S13068 1891 3 SI MM NOT_NAMED 1891-02-12 00:00:00 NR -18.6910 67.4393 main 1021 1021 __________P___ -1 -18.6910 67.4393 7 7 106
1891039S13068 1891 3 SI MM NOT_NAMED 1891-02-12 03:00:00 NR -18.7946 67.8182 main 1060 1060 __________P___ -1 -18.7946 67.8182 7 8 106
1891039S13068 1891 3 SI MM NOT_NAMED 1891-02-12 06:00:00 NR -18.9000 68.2000 main 1100 __________O___ -1 -18.9000 68.2000 7 8 106

About IBTrACS Database

This database is a web-friendly format of International Best Track Archive for Climate Stewardship (IBTrACS), a global best track data archive curated by NOAA dating back to 1842.

Updated: 2021-11-26